createdAt,value
2019-04-12T00:00:56.995Z,9.50
2019-04-12T00:05:01.894Z,8.50
2019-04-12T00:09:06.728Z,9.07
2019-04-12T00:13:09.841Z,8.47
2019-04-12T00:17:13.969Z,9.10
2019-04-12T00:21:17.809Z,9.37
2019-04-12T00:25:20.866Z,10.13
2019-04-12T00:29:23.917Z,8.83
2019-04-12T00:33:26.960Z,9.80
2019-04-12T00:37:30.019Z,8.10
2019-04-12T00:41:33.196Z,7.80
2019-04-12T00:45:36.377Z,9.40
2019-04-12T00:49:40.484Z,10.30
2019-04-12T00:53:45.507Z,10.00
2019-04-12T00:57:48.676Z,9.60
2019-04-12T01:02:05.688Z,8.17
2019-04-12T01:06:08.997Z,8.70
2019-04-12T01:10:12.578Z,8.90
2019-04-12T01:14:15.761Z,9.37
2019-04-12T01:18:18.916Z,9.10
2019-04-12T01:22:22.074Z,9.50
2019-04-12T01:26:25.122Z,9.10
2019-04-12T01:30:28.297Z,10.10
2019-04-12T01:34:31.447Z,9.87
2019-04-12T01:38:34.655Z,9.80
2019-04-12T01:42:37.783Z,9.40
2019-04-12T01:46:40.927Z,9.63
2019-04-12T01:50:43.978Z,9.20
2019-04-12T01:54:47.062Z,9.70
2019-04-12T01:58:50.121Z,10.20
2019-04-12T02:02:53.271Z,10.13
2019-04-12T02:06:56.462Z,10.17
2019-04-12T02:11:00.827Z,10.70
2019-04-12T02:15:06.774Z,9.60
2019-04-12T02:19:09.866Z,10.07
2019-04-12T02:23:12.942Z,8.97
2019-04-12T02:27:16.006Z,9.67
2019-04-12T02:31:40.900Z,10.03
2019-04-12T02:35:45.789Z,9.63
2019-04-12T02:39:49.186Z,10.77
2019-04-12T02:43:55.322Z,10.30
2019-04-12T02:48:02.118Z,10.00
2019-04-12T02:52:20.292Z,9.43
2019-04-12T02:56:42.334Z,9.53
2019-04-12T03:00:52.061Z,9.40
2019-04-12T03:04:55.333Z,9.30
2019-04-12T03:08:58.795Z,9.70
2019-04-12T03:13:03.218Z,9.90
2019-04-12T03:17:06.879Z,10.00
2019-04-12T03:21:10.062Z,9.80
2019-04-12T03:25:13.730Z,11.30
2019-04-12T03:29:17.476Z,9.47
2019-04-12T03:33:21.236Z,8.97
2019-04-12T03:37:24.301Z,12.50
2019-04-12T03:41:29.200Z,14.40
2019-04-12T03:45:32.518Z,9.70
2019-04-12T03:49:35.774Z,9.83
2019-04-12T03:53:38.835Z,10.07
2019-04-12T03:57:42.116Z,9.63
2019-04-12T04:01:47.999Z,12.47
2019-04-12T04:05:51.665Z,10.57
2019-04-12T04:09:54.831Z,11.23
2019-04-12T04:13:59.518Z,9.80
2019-04-12T04:18:07.687Z,10.33
2019-04-12T04:22:12.650Z,9.53
2019-04-12T04:26:23.561Z,8.40
2019-04-12T04:30:37.394Z,10.30
2019-04-12T04:34:40.758Z,10.07
2019-04-12T04:38:44.171Z,8.37
2019-04-12T04:42:47.646Z,8.37
2019-04-12T04:46:52.555Z,10.80
2019-04-12T04:50:55.954Z,9.63
2019-04-12T04:54:59.173Z,10.63
2019-04-12T04:59:02.558Z,9.23
2019-04-12T05:03:08.286Z,9.90
2019-04-12T05:07:11.259Z,8.83
2019-04-12T05:11:15.013Z,9.37
2019-04-12T05:15:18.846Z,10.00
2019-04-12T05:19:22.126Z,8.63
2019-04-12T05:23:25.296Z,8.57
2019-04-12T05:27:28.470Z,8.17
2019-04-12T05:31:31.736Z,8.93
2019-04-12T05:35:36.377Z,10.00
2019-04-12T05:39:39.679Z,9.47
2019-04-12T05:43:44.769Z,9.17
2019-04-12T05:48:06.295Z,9.23
2019-04-12T05:52:09.362Z,8.20
2019-04-12T05:56:14.920Z,10.40
2019-04-12T06:00:23.203Z,10.70
2019-04-12T06:04:28.541Z,8.87
2019-04-12T06:08:31.243Z,10.03
2019-04-12T06:12:35.227Z,10.20
2019-04-12T06:16:40.028Z,9.53
2019-04-12T06:20:48.660Z,9.23
2019-04-12T06:25:02.616Z,10.47
2019-04-12T06:29:05.680Z,9.60
2019-04-12T06:33:08.958Z,9.67
2019-04-12T06:37:12.017Z,9.23
2019-04-12T06:41:16.513Z,10.40
2019-04-12T06:45:20.307Z,9.80
2019-04-12T06:49:23.367Z,9.47
2019-04-12T06:53:26.539Z,12.27
2019-04-12T06:57:29.739Z,10.83
2019-04-12T07:01:34.813Z,10.10
2019-04-12T07:05:39.031Z,8.63
2019-04-12T07:09:42.095Z,8.50
2019-04-12T07:13:45.190Z,7.00
2019-04-12T07:17:49.344Z,6.40
2019-04-12T07:21:52.669Z,10.10
2019-04-12T07:25:55.967Z,9.03
2019-04-12T07:34:35.536Z,8.77
2019-04-12T07:38:41.713Z,8.97
2019-04-12T07:42:50.638Z,6.80
2019-04-12T07:46:53.912Z,8.73
2019-04-12T07:51:01.956Z,8.77
2019-04-12T07:55:25.373Z,7.33
2019-04-12T07:59:28.588Z,8.37
2019-04-12T08:03:33.591Z,9.80
2019-04-12T08:07:38.724Z,9.07
2019-04-12T08:11:41.791Z,8.60
2019-04-12T08:15:44.933Z,8.73
2019-04-12T08:19:50.414Z,8.10
2019-04-12T08:23:53.549Z,7.67
2019-04-12T08:27:58.547Z,8.97
2019-04-12T08:32:01.627Z,8.87
2019-04-12T08:36:04.765Z,8.63
2019-04-12T08:40:08.241Z,8.63
2019-04-12T08:44:11.573Z,9.20
2019-04-12T08:48:14.621Z,7.10
2019-04-12T08:52:17.679Z,8.23
2019-04-12T08:56:20.867Z,8.63
2019-04-12T09:00:23.979Z,9.87
2019-04-12T09:04:27.171Z,8.70
2019-04-12T09:08:32.228Z,8.93
2019-04-12T09:12:35.482Z,8.70
2019-04-12T09:16:38.753Z,10.20
2019-04-12T09:20:47.369Z,8.77
2019-04-12T09:25:01.175Z,8.30
2019-04-12T09:29:04.320Z,9.17
2019-04-12T09:33:07.601Z,8.20
2019-04-12T09:37:10.919Z,8.70
2019-04-12T09:41:14.171Z,8.70
2019-04-12T09:45:17.182Z,8.50
2019-04-12T09:49:21.424Z,10.63
2019-04-12T09:53:24.817Z,11.13
2019-04-12T09:57:28.045Z,7.53
2019-04-12T10:01:32.560Z,10.13
2019-04-12T10:05:35.839Z,10.23
2019-04-12T10:09:38.973Z,11.27
2019-04-12T10:13:42.129Z,10.50
2019-04-12T10:17:45.218Z,9.63
2019-04-12T10:21:49.706Z,11.00
2019-04-12T10:25:52.713Z,9.53
2019-04-12T10:29:55.794Z,10.50
2019-04-12T10:34:00.799Z,10.37
2019-04-12T10:38:03.984Z,10.60
2019-04-12T10:42:07.356Z,10.80
2019-04-12T10:46:17.935Z,11.60
2019-04-12T10:50:35.197Z,10.97
2019-04-12T10:54:58.207Z,9.70
2019-04-12T10:59:03.271Z,12.03
2019-04-12T11:03:06.569Z,11.60
2019-04-12T11:07:09.662Z,10.83
2019-04-12T11:11:13.019Z,11.50
2019-04-12T11:15:21.529Z,11.40
2019-04-12T11:19:21.114Z,11.43
2019-04-12T11:23:26.238Z,11.13
2019-04-12T11:27:29.415Z,12.37
2019-04-12T11:31:32.485Z,11.53
2019-04-12T11:35:35.676Z,16.03
2019-04-12T11:39:38.734Z,13.63
2019-04-12T11:43:41.863Z,11.63
2019-04-12T11:47:44.916Z,11.73
2019-04-12T11:51:48.162Z,10.53
2019-04-12T11:55:51.236Z,12.03
2019-04-12T11:59:54.379Z,12.00
2019-04-12T12:03:59.345Z,11.47
2019-04-12T12:08:13.619Z,12.70
2019-04-12T12:12:21.420Z,12.10
2019-04-12T12:16:26.533Z,12.47
2019-04-12T12:20:29.687Z,11.20
2019-04-12T12:24:33.955Z,13.53
2019-04-12T12:28:37.077Z,11.80
2019-04-12T12:32:40.148Z,11.80
2019-04-12T12:36:43.209Z,10.30
2019-04-12T12:40:46.264Z,11.80
2019-04-12T12:44:49.314Z,12.57
2019-04-12T12:48:52.478Z,12.80
2019-04-12T12:52:55.555Z,13.50
2019-04-12T12:56:58.730Z,13.13
2019-04-12T13:01:01.833Z,13.27
2019-04-12T13:05:05.965Z,13.07
2019-04-12T13:09:09.223Z,14.57
2019-04-12T13:13:12.272Z,14.53
2019-04-12T13:17:15.414Z,12.80
2019-04-12T13:21:18.473Z,12.93
2019-04-12T13:25:23.503Z,12.80
2019-04-12T13:29:26.674Z,14.20
2019-04-12T13:33:40.555Z,13.10
2019-04-12T13:37:57.578Z,12.37
2019-04-12T13:42:00.842Z,14.87
2019-04-12T13:46:03.994Z,15.50
2019-04-12T13:50:07.679Z,13.33
2019-04-12T13:54:10.855Z,15.33
2019-04-12T13:58:14.104Z,14.90
2019-04-12T14:02:17.200Z,14.70
2019-04-12T14:06:20.358Z,14.60
2019-04-12T14:10:23.433Z,13.43
2019-04-12T14:14:26.662Z,13.73
2019-04-12T14:18:29.745Z,15.57
2019-04-12T14:22:32.796Z,15.23
2019-04-12T14:26:37.326Z,14.50
2019-04-12T14:30:44.321Z,15.40
2019-04-12T14:34:52.028Z,15.70
2019-04-12T14:38:55.305Z,16.60
2019-04-12T14:43:00.261Z,15.30
2019-04-12T14:47:08.570Z,14.90
2019-04-12T14:51:13.886Z,15.13
2019-04-12T14:55:17.319Z,15.33
2019-04-12T14:59:20.624Z,14.90
2019-04-12T15:03:24.394Z,15.37
2019-04-12T15:07:31.050Z,15.50
2019-04-12T15:11:34.682Z,14.03
2019-04-12T15:15:37.746Z,15.07
2019-04-12T15:19:40.815Z,15.87
2019-04-12T15:23:43.983Z,14.60
2019-04-12T15:27:49.223Z,15.80
2019-04-12T15:31:52.387Z,14.83
2019-04-12T15:35:57.273Z,15.13
2019-04-12T15:40:00.446Z,14.17
2019-04-12T15:44:03.963Z,15.33
2019-04-12T15:48:08.886Z,14.40
2019-04-12T15:52:12.828Z,15.20
2019-04-12T15:56:16.043Z,15.03
2019-04-12T16:00:22.932Z,16.57
2019-04-12T16:04:26.007Z,16.30
2019-04-12T16:08:32.895Z,16.50
2019-04-12T16:12:45.915Z,16.10
2019-04-12T16:17:10.862Z,15.93
2019-04-12T16:21:14.222Z,15.53
2019-04-12T16:25:17.648Z,15.50
2019-04-12T16:29:30.152Z,15.73
2019-04-12T16:33:40.929Z,16.80
2019-04-12T16:37:45.872Z,16.90
2019-04-12T16:41:48.930Z,15.60
2019-04-12T16:45:52.024Z,16.67
2019-04-12T16:49:55.105Z,14.30
2019-04-12T16:53:58.275Z,14.13
2019-04-12T16:58:01.330Z,15.23
2019-04-12T17:02:07.522Z,17.30
2019-04-12T17:06:09.440Z,16.20
2019-04-12T17:10:12.491Z,16.97
2019-04-12T17:14:15.620Z,17.37
2019-04-12T17:18:18.709Z,16.90
2019-04-12T17:22:21.817Z,15.33
2019-04-12T17:26:24.874Z,15.37
2019-04-12T17:30:29.811Z,16.57
2019-04-12T17:34:32.918Z,15.10
2019-04-12T17:38:36.065Z,16.33
2019-04-12T17:42:39.167Z,16.30
2019-04-12T17:46:42.299Z,15.40
2019-04-12T17:50:53.460Z,16.67
2019-04-12T17:55:17.085Z,17.20
2019-04-12T17:59:20.352Z,18.07
2019-04-12T18:03:23.561Z,16.30
2019-04-12T18:07:26.679Z,21.33
2019-04-12T18:11:37.597Z,17.87
2019-04-12T18:15:40.754Z,18.80
2019-04-12T18:19:43.948Z,17.63
2019-04-12T18:23:47.020Z,17.97
2019-04-12T18:27:50.080Z,18.33
2019-04-12T18:31:54.912Z,17.13
2019-04-12T18:35:57.975Z,18.73
2019-04-12T18:40:01.355Z,15.83
2019-04-12T18:44:04.563Z,18.17
2019-04-12T18:48:07.732Z,15.17
2019-04-12T18:52:11.031Z,18.07
2019-04-12T18:56:14.167Z,18.20
2019-04-12T19:00:17.713Z,17.50
2019-04-12T19:04:20.810Z,19.20
2019-04-12T19:08:24.324Z,18.67
2019-04-12T19:12:27.667Z,17.30
2019-04-12T19:16:31.035Z,20.30
2019-04-12T19:20:34.062Z,18.17
2019-04-12T19:24:37.108Z,19.80
2019-04-12T19:28:40.707Z,19.10
2019-04-12T19:32:52.394Z,19.17
2019-04-12T19:37:14.383Z,18.23
2019-04-12T19:41:24.262Z,21.30
2019-04-12T19:45:27.546Z,20.00
2019-04-12T19:49:30.627Z,19.40
2019-04-12T19:53:33.723Z,19.00
2019-04-12T19:57:36.866Z,20.63
2019-04-12T20:01:39.957Z,19.40
2019-04-12T20:05:43.022Z,19.40
2019-04-12T20:09:46.377Z,19.53
2019-04-12T20:13:49.547Z,21.60
2019-04-12T20:17:52.648Z,18.10
2019-04-12T20:21:55.728Z,20.03
2019-04-12T20:25:58.880Z,20.43
2019-04-12T20:30:05.821Z,18.63
2019-04-12T20:34:10.351Z,19.50
2019-04-12T20:38:13.420Z,21.90
2019-04-12T20:42:16.656Z,20.20
2019-04-12T20:46:19.790Z,19.63
2019-04-12T20:50:22.877Z,21.03
2019-04-12T20:54:26.022Z,19.37
2019-04-12T20:58:29.228Z,21.60
2019-04-12T21:02:40.016Z,23.97
2019-04-12T21:06:37.449Z,21.93
2019-04-12T21:10:40.531Z,23.43
2019-04-12T21:14:43.613Z,22.40
2019-04-12T21:18:46.752Z,36.40
2019-04-12T21:22:49.992Z,20.40
2019-04-12T21:26:53.239Z,18.83
2019-04-12T21:30:56.293Z,22.60
2019-04-12T21:35:01.388Z,23.10
2019-04-12T21:39:06.788Z,20.50
2019-04-12T21:43:10.071Z,19.80
2019-04-12T21:47:13.106Z,20.90
2019-04-12T21:51:16.204Z,18.50
2019-04-12T21:55:19.343Z,20.37
2019-04-12T21:59:22.484Z,18.47
2019-04-12T22:03:25.925Z,17.60
2019-04-12T22:07:29.087Z,17.57
2019-04-12T22:11:32.178Z,17.90
2019-04-12T22:15:35.465Z,18.70
2019-04-12T22:19:38.534Z,19.30
2019-04-12T22:23:41.580Z,19.43
2019-04-12T22:27:44.608Z,19.77
2019-04-12T22:31:49.567Z,18.80
2019-04-12T22:35:54.083Z,20.13
2019-04-12T22:39:57.203Z,18.60
2019-04-12T22:44:00.315Z,18.87
2019-04-12T22:48:03.402Z,18.93
2019-04-12T22:52:06.476Z,18.63
2019-04-12T22:56:09.627Z,18.97
2019-04-12T23:00:12.846Z,17.30
2019-04-12T23:04:15.944Z,20.17
2019-04-12T23:08:19.102Z,19.40
2019-04-12T23:12:22.150Z,17.70
2019-04-12T23:16:25.259Z,20.87
2019-04-12T23:20:28.313Z,19.50
2019-04-12T23:24:31.429Z,18.63
2019-04-12T23:28:34.590Z,17.40
2019-04-12T23:32:37.827Z,19.07
2019-04-12T23:36:42.614Z,19.70
2019-04-12T23:40:45.845Z,18.83
2019-04-12T23:44:49.000Z,19.80
2019-04-12T23:48:52.062Z,18.93
2019-04-12T23:52:55.159Z,19.30
2019-04-12T23:56:58.212Z,20.33
